Accueil
METAR-TAF:

METAR-TAF

Aéroports :

Lille, France

Aéroport de Lille-Lesquin

latitude: 50-34N, longitude: 003-06E, altitude: 48 m

Observation

Le bulletin a été fait il y a 18 minutes, à 01:30 UTC
Vent 5 kt de sud-ouest
Température 14°C
Humidité 88%
Pression 1021 hPa
Visibilité 10 km ou plus
pas de nuages en-dessous de 1500 mètres et pas de cumulonimbus.

METAR: LFQQ 170130Z AUTO 22005KT CAVOK 14/12 Q1021 NOSIG

Heure: 03:48 (01:48 UTC)

Prévision

Le bulletin a été fait il y a 2 heures et 48 minutes, à 23:00 UTC
Prévision valable du 17 à 00 UTC au 18 à 06 UTC
Vent 7 kt de ouest/sud-ouest
Visibilité 10 km ou plus
pas de nuages en-dessous de 1500 mètres et pas de cumulonimbus.
Probabilité 30%
du 18 à 03 UTC au 18 à 06 UTC
Visibilité: 4000 m
brume

TAF: LFQQ 162300Z 1700/1806 24007KT CAVOK PROB30 1803/1806 4000 BR

Observations et prévisions météorologiques de plus de 4000 aéroports (messages METAR et TAF).

Les stations disponibles sont représentées par des disques jaunes et rouges sur la carte.

Passer la souris dessus pour voir le nom de la station.

Cliquer dessus pour voir les observations et prévisions météorologiques.

Pour changer de carte: cliquez sur les boutons verts avec une croix noire pour zoomer, sur le bouton vert avec un tiret pour effectuer un zoom arrière, ou sur les flèches vertes pour les cartes adjacentes.


METAR-TAF: